createdAt,value
2023-05-14T00:00:55.632Z,9.430377
2023-05-14T00:01:55.609Z,9.430381
2023-05-14T04:15:56.206Z,9.430316
2023-05-14T04:15:59.368Z,9.430276
2023-05-14T04:17:00.269Z,9.430320
2023-05-14T04:17:59.302Z,9.430329
2023-05-14T04:18:59.872Z,9.430342
2023-05-14T04:19:59.125Z,9.430363
2023-05-14T04:20:59.113Z,9.430367
2023-05-14T04:21:59.108Z,9.430322
2023-05-14T04:22:59.224Z,9.430326
2023-05-14T04:23:59.104Z,9.430302
2023-05-14T04:24:59.074Z,9.430333
2023-05-14T04:25:59.035Z,9.430337
2023-05-14T04:26:59.042Z,9.430347
2023-05-14T04:27:59.068Z,9.430339
2023-05-14T04:28:59.013Z,9.430353
2023-05-14T04:29:59.035Z,9.430310
2023-05-14T04:30:58.973Z,9.430293
2023-05-14T04:31:59.062Z,9.430343
2023-05-14T04:32:59.058Z,9.430331
2023-05-14T04:33:58.951Z,9.430344
2023-05-14T04:34:58.956Z,9.430313
2023-05-14T04:35:58.973Z,9.430341
2023-05-14T04:36:58.915Z,9.430390
2023-05-14T04:37:58.945Z,9.430387
2023-05-14T04:38:58.915Z,9.430357
2023-05-14T04:39:58.898Z,9.430378
2023-05-14T04:40:58.915Z,9.430361
2023-05-14T04:41:58.864Z,9.430363
2023-05-14T04:42:58.885Z,9.430342
2023-05-14T04:43:58.911Z,9.430376
2023-05-14T04:44:58.855Z,9.430408
2023-05-14T04:45:58.835Z,9.430362
2023-05-14T04:46:58.820Z,9.430385
2023-05-14T04:47:58.860Z,9.430357
2023-05-14T04:48:58.787Z,9.430372
2023-05-14T04:49:58.816Z,9.430386
2023-05-14T04:50:58.786Z,9.430390
2023-05-14T04:51:58.772Z,9.430390
2023-05-14T04:52:58.788Z,9.430428
2023-05-14T04:53:58.811Z,9.430308
2023-05-14T04:54:58.825Z,9.430362
2023-05-14T04:55:58.735Z,9.430384
2023-05-14T04:56:58.712Z,9.430345
2023-05-14T04:57:58.717Z,9.430320
2023-05-14T04:58:58.692Z,9.430383
2023-05-14T04:59:58.716Z,9.430436
2023-05-14T05:00:58.692Z,9.430360
2023-05-14T05:01:58.683Z,9.430346
2023-05-14T05:02:58.804Z,9.430430
2023-05-14T05:03:58.685Z,9.430392
2023-05-14T05:04:58.679Z,9.430362
2023-05-14T05:05:58.611Z,9.430371
2023-05-14T05:06:58.651Z,9.430386
2023-05-14T05:07:58.632Z,9.430379
2023-05-14T05:09:00.634Z,9.430434
2023-05-14T05:09:58.576Z,9.430416
2023-05-14T05:10:58.589Z,9.430383
2023-05-14T05:11:58.548Z,9.430392
2023-05-14T05:12:58.546Z,9.430411
2023-05-14T05:13:58.555Z,9.430392
2023-05-14T05:14:58.810Z,9.430389
2023-05-14T05:15:58.521Z,9.430389
2023-05-14T05:16:58.517Z,9.430401
2023-05-14T05:17:58.512Z,9.430379
2023-05-14T05:18:58.517Z,9.430373
2023-05-14T05:19:58.490Z,9.430366
2023-05-14T05:20:58.439Z,9.430363
2023-05-14T05:21:58.517Z,9.430357
2023-05-14T05:22:58.428Z,9.430344
2023-05-14T05:23:59.981Z,9.430370
2023-05-14T05:24:58.482Z,9.430341
2023-05-14T05:25:58.451Z,9.430385
2023-05-14T05:26:58.459Z,9.430389
2023-05-14T05:27:58.423Z,9.430344
2023-05-14T05:28:58.421Z,9.430385
2023-05-14T05:29:59.218Z,9.430419
2023-05-14T05:30:58.609Z,9.430391
2023-05-14T05:31:58.474Z,9.430405
2023-05-14T05:32:58.566Z,9.430399
2023-05-14T05:33:58.449Z,9.430365
2023-05-14T05:34:58.384Z,9.430387
2023-05-14T05:35:58.436Z,9.430379
2023-05-14T05:36:58.296Z,9.430416
2023-05-14T05:37:59.842Z,9.430385
2023-05-14T05:38:58.332Z,9.430400
2023-05-14T05:39:58.291Z,9.430388
2023-05-14T05:40:58.291Z,9.430395
2023-05-14T05:41:58.347Z,9.430381
2023-05-14T05:42:58.273Z,9.430365
2023-05-14T05:43:58.204Z,9.430375
2023-05-14T05:44:58.324Z,9.430402
2023-05-14T05:45:58.388Z,9.430400
2023-05-14T05:47:01.135Z,9.430402
2023-05-14T05:47:59.936Z,9.430403
2023-05-14T05:48:59.687Z,9.430414
2023-05-14T05:49:58.251Z,9.430434
2023-05-14T05:50:59.729Z,9.430414
2023-05-14T05:51:59.558Z,9.430424
2023-05-14T05:53:00.027Z,9.430413
2023-05-14T05:53:59.796Z,9.430409
2023-05-14T05:54:58.402Z,9.430421
2023-05-14T05:55:58.389Z,9.430399
2023-05-14T05:56:58.199Z,9.430382
2023-05-14T05:57:59.615Z,9.430369
2023-05-14T05:58:58.129Z,9.430345
2023-05-14T05:59:58.120Z,9.430334
2023-05-14T06:00:58.035Z,9.430339
2023-05-14T06:01:58.095Z,9.430349
2023-05-14T06:02:58.100Z,9.430395
2023-05-14T06:03:59.337Z,9.430408
2023-05-14T06:04:59.605Z,9.430345
2023-05-14T06:05:58.069Z,9.430359
2023-05-14T06:06:59.358Z,9.430375
2023-05-14T06:07:59.462Z,9.430367
2023-05-14T06:08:57.944Z,9.430348
2023-05-14T06:09:57.945Z,9.430368
2023-05-14T06:10:57.888Z,9.430334
2023-05-14T06:11:57.911Z,9.430366
2023-05-14T06:12:57.886Z,9.430372
2023-05-14T06:13:57.889Z,9.430370
2023-05-14T06:14:57.952Z,9.430359
2023-05-14T06:15:57.958Z,9.430362
2023-05-14T06:17:00.597Z,9.430346
2023-05-14T06:17:59.433Z,9.430356
2023-05-14T06:18:58.252Z,9.430374
2023-05-14T06:19:57.882Z,9.430334
2023-05-14T06:20:57.782Z,9.430334
2023-05-14T06:21:57.812Z,9.430374
2023-05-14T06:22:57.910Z,9.430372
2023-05-14T06:23:57.805Z,9.430365
2023-05-14T06:24:57.842Z,9.430365
2023-05-14T06:25:57.730Z,9.430357
2023-05-14T06:26:58.803Z,9.430380
2023-05-14T06:28:00.602Z,9.430372
2023-05-14T06:28:59.079Z,9.430383
2023-05-14T06:29:57.771Z,9.430367
2023-05-14T06:30:57.737Z,9.430369
2023-05-14T06:31:57.766Z,9.430386
2023-05-14T06:32:57.795Z,9.430364
2023-05-14T06:33:57.687Z,9.430341
2023-05-14T06:34:57.755Z,9.430365
2023-05-14T06:35:57.669Z,9.430364
2023-05-14T06:36:57.683Z,9.430367
2023-05-14T06:37:57.800Z,9.430348
2023-05-14T06:38:57.663Z,9.430326
2023-05-14T06:39:57.967Z,9.430323
2023-05-14T06:40:58.621Z,9.430366
2023-05-14T06:41:57.536Z,9.430376
2023-05-14T06:42:57.605Z,9.430367
2023-05-14T06:43:57.547Z,9.430381
2023-05-14T06:44:57.493Z,9.430370
2023-05-14T06:45:57.593Z,9.430366
2023-05-14T06:46:57.507Z,9.430329
2023-05-14T06:47:57.636Z,9.430326
2023-05-14T06:48:59.459Z,9.430329
2023-05-14T06:49:58.462Z,9.430351
2023-05-14T06:50:57.465Z,9.430332
2023-05-14T06:51:57.476Z,9.430351
2023-05-14T06:52:57.472Z,9.430343
2023-05-14T06:53:57.447Z,9.430356
2023-05-14T06:54:57.482Z,9.430367
2023-05-14T06:55:57.528Z,9.430355
2023-05-14T06:56:57.456Z,9.430333
2023-05-14T06:59:21.679Z,9.430347
2023-05-14T06:59:23.227Z,9.430347
2023-05-14T07:00:23.285Z,9.430360
2023-05-14T07:01:24.240Z,9.430394
2023-05-14T07:03:48.211Z,9.430380
2023-05-14T07:03:49.743Z,9.430380
2023-05-14T07:04:49.809Z,9.430361
2023-05-14T07:05:49.696Z,9.430359
2023-05-14T07:06:50.285Z,9.430364
2023-05-14T07:07:49.677Z,9.430397
2023-05-14T07:08:49.672Z,9.430356
2023-05-14T07:09:49.662Z,9.430347
2023-05-14T07:10:49.802Z,9.430358
2023-05-14T07:11:49.664Z,9.430345
2023-05-14T07:12:49.615Z,9.430359
2023-05-14T07:13:49.641Z,9.430347
2023-05-14T07:14:49.629Z,9.430353
2023-05-14T07:15:50.069Z,9.430371
2023-05-14T07:16:49.798Z,9.430393
2023-05-14T07:17:49.784Z,9.430350
2023-05-14T07:18:49.613Z,9.430337
2023-05-14T07:19:49.661Z,9.430374
2023-05-14T07:20:49.604Z,9.430378
2023-05-14T07:21:49.561Z,9.430400
2023-05-14T07:22:49.557Z,9.430362
2023-05-14T07:23:49.576Z,9.430334
2023-05-14T07:24:49.597Z,9.430337
2023-05-14T07:25:49.773Z,9.430346
2023-05-14T07:26:50.933Z,9.430393
2023-05-14T07:27:51.140Z,9.430357
2023-05-14T07:28:51.402Z,9.430355
2023-05-14T07:29:49.932Z,9.430367
2023-05-14T07:30:50.832Z,9.430371
2023-05-14T07:31:49.652Z,9.430331
2023-05-14T07:32:50.899Z,9.430359
2023-05-14T07:33:50.956Z,9.430387
2023-05-14T07:34:51.112Z,9.430365
2023-05-14T07:35:50.384Z,9.430323
2023-05-14T07:36:49.415Z,9.430378
2023-05-14T07:37:49.422Z,9.430338
2023-05-14T07:38:49.360Z,9.430319
2023-05-14T07:39:49.339Z,9.430360
2023-05-14T07:40:49.365Z,9.430358
2023-05-14T07:41:49.393Z,9.430346
2023-05-14T07:42:49.375Z,9.430343
2023-05-14T07:43:50.788Z,9.430367
2023-05-14T07:44:50.352Z,9.430340
2023-05-14T07:45:49.405Z,9.430327
2023-05-14T07:46:49.303Z,9.430336
2023-05-14T07:47:49.494Z,9.430344
2023-05-14T07:48:49.354Z,9.430375
2023-05-14T07:49:49.581Z,9.430380
2023-05-14T07:50:49.777Z,9.430357
2023-05-14T07:51:49.228Z,9.430363
2023-05-14T07:52:49.294Z,9.430364
2023-05-14T07:53:49.273Z,9.430347
2023-05-14T07:54:50.583Z,9.430355
2023-05-14T07:55:49.187Z,9.430347
2023-05-14T07:56:49.232Z,9.430365
2023-05-14T07:57:49.861Z,9.430366
2023-05-14T07:58:49.173Z,9.430363
2023-05-14T07:59:49.206Z,9.430339
2023-05-14T08:00:49.114Z,9.430344
2023-05-14T08:01:49.107Z,9.430367
2023-05-14T08:02:49.241Z,9.430334
2023-05-14T08:03:50.233Z,9.430352
2023-05-14T08:04:49.105Z,9.430357
2023-05-14T08:05:49.109Z,9.430349
2023-05-14T08:06:49.145Z,9.430373
2023-05-14T08:07:49.111Z,9.430362
2023-05-14T08:08:49.334Z,9.430360
2023-05-14T08:09:49.280Z,9.430374
2023-05-14T08:10:49.541Z,9.430371
2023-05-14T08:11:49.693Z,9.430316
2023-05-14T08:12:49.300Z,9.430365
2023-05-14T08:13:50.382Z,9.430341
2023-05-14T08:14:48.974Z,9.430327
2023-05-14T08:15:48.943Z,9.430336
2023-05-14T08:16:49.106Z,9.430348
2023-05-14T08:17:49.086Z,9.430342
2023-05-14T08:18:49.020Z,9.430336
2023-05-14T08:19:48.962Z,9.430334
2023-05-14T08:20:48.966Z,9.430347
2023-05-14T08:21:48.926Z,9.430397
2023-05-14T08:22:48.857Z,9.430332
2023-05-14T08:23:48.901Z,9.430298
2023-05-14T08:24:48.970Z,9.430344
2023-05-14T08:25:49.970Z,9.430343
2023-05-14T08:26:48.900Z,9.430367
2023-05-14T08:27:48.893Z,9.430355
2023-05-14T08:28:48.823Z,9.430335
2023-05-14T08:29:48.786Z,9.430354
2023-05-14T08:30:48.795Z,9.430309
2023-05-14T08:31:48.854Z,9.430317
2023-05-14T08:32:48.848Z,9.430318
2023-05-14T08:33:48.831Z,9.430308
2023-05-14T08:34:49.320Z,9.430329
2023-05-14T08:35:48.763Z,9.430345
2023-05-14T08:36:48.775Z,9.430348
2023-05-14T08:37:50.221Z,9.430336
2023-05-14T08:38:49.338Z,9.430313
2023-05-14T08:39:49.144Z,9.430314
2023-05-14T08:40:48.900Z,9.430326
2023-05-14T08:41:48.707Z,9.430316
2023-05-14T08:42:48.693Z,9.430305
2023-05-14T08:43:48.705Z,9.430330
2023-05-14T08:44:48.758Z,9.430306
2023-05-14T08:45:48.670Z,9.430297
2023-05-14T08:46:48.655Z,9.430330
2023-05-14T08:47:48.809Z,9.430292
2023-05-14T08:48:48.657Z,9.430328
2023-05-14T08:49:49.079Z,9.430348
2023-05-14T08:50:48.565Z,9.430341
2023-05-14T08:51:48.632Z,9.430325
2023-05-14T08:52:48.602Z,9.430338
2023-05-14T08:53:48.557Z,9.430344
2023-05-14T08:54:48.886Z,9.430313
2023-05-14T08:55:48.576Z,9.430313
2023-05-14T08:56:50.520Z,9.430351
2023-05-14T08:57:48.560Z,9.430339
2023-05-14T08:58:48.502Z,9.430307
2023-05-14T08:59:48.511Z,9.430341
2023-05-14T09:00:48.520Z,9.430309
2023-05-14T09:01:48.908Z,9.430275
2023-05-14T09:02:49.395Z,9.430282
2023-05-14T09:03:48.482Z,9.430292
2023-05-14T09:04:48.429Z,9.430262
2023-05-14T09:05:48.421Z,9.430290
2023-05-14T09:06:48.414Z,9.430290
2023-05-14T09:07:48.389Z,9.430300
2023-05-14T09:08:48.412Z,9.430324
2023-05-14T09:09:48.400Z,9.430306
2023-05-14T09:10:48.336Z,9.430366
2023-05-14T09:11:48.343Z,9.430361
2023-05-14T09:12:48.320Z,9.430344
2023-05-14T09:13:48.366Z,9.430331
2023-05-14T09:14:48.502Z,9.430303
2023-05-14T09:15:48.306Z,9.430325
2023-05-14T09:16:48.419Z,9.430329
2023-05-14T09:17:48.335Z,9.430346
2023-05-14T09:18:48.581Z,9.430326
2023-05-14T09:19:48.328Z,9.430331
2023-05-14T09:20:48.300Z,9.430316
2023-05-14T09:21:48.295Z,9.430335
2023-05-14T09:22:48.271Z,9.430342
2023-05-14T09:23:48.228Z,9.430317
2023-05-14T09:24:48.239Z,9.430310
2023-05-14T09:25:48.294Z,9.430356
2023-05-14T09:26:50.630Z,9.430321
2023-05-14T09:27:49.896Z,9.430322
2023-05-14T09:28:48.178Z,9.430331
2023-05-14T09:29:48.201Z,9.430346
2023-05-14T09:30:48.237Z,9.430317
2023-05-14T09:31:48.254Z,9.430320
2023-05-14T09:32:48.150Z,9.430368
2023-05-14T09:33:49.078Z,9.430366
2023-05-14T09:34:49.730Z,9.430361
2023-05-14T09:35:49.159Z,9.430342
2023-05-14T09:36:49.829Z,9.430301
2023-05-14T09:37:48.856Z,9.430294
2023-05-14T09:38:48.150Z,9.430330
2023-05-14T09:39:48.348Z,9.430340
2023-05-14T09:40:48.081Z,9.430374
2023-05-14T09:41:48.061Z,9.430313
2023-05-14T09:42:48.060Z,9.430376
2023-05-14T09:43:47.974Z,9.430304
2023-05-14T09:44:48.041Z,9.430345
2023-05-14T09:45:48.019Z,9.430325
2023-05-14T09:46:48.262Z,9.430305
2023-05-14T09:47:48.203Z,9.430342
2023-05-14T09:48:48.635Z,9.430345
2023-05-14T09:49:47.963Z,9.430379
2023-05-14T09:50:47.963Z,9.430364
2023-05-14T09:51:48.016Z,9.430331
2023-05-14T09:52:47.969Z,9.430327
2023-05-14T09:53:47.990Z,9.430295
2023-05-14T09:54:47.927Z,9.430314
2023-05-14T09:55:48.193Z,9.430342
2023-05-14T09:56:49.269Z,9.430365
2023-05-14T09:57:48.363Z,9.430353
2023-05-14T09:58:47.872Z,9.430357
2023-05-14T09:59:47.843Z,9.430367
2023-05-14T10:00:47.932Z,9.430348
2023-05-14T10:01:47.902Z,9.430371
2023-05-14T10:02:47.967Z,9.430376
2023-05-14T10:03:47.834Z,9.430365
2023-05-14T10:04:47.857Z,9.430337
2023-05-14T10:05:47.778Z,9.430395
2023-05-14T10:06:47.772Z,9.430402
2023-05-14T10:07:48.214Z,9.430364
2023-05-14T10:08:47.703Z,9.430388
2023-05-14T10:09:47.737Z,9.430328
2023-05-14T10:10:47.808Z,9.430337
2023-05-14T10:11:47.775Z,9.430369
2023-05-14T10:12:47.734Z,9.430344
2023-05-14T10:13:47.685Z,9.430322
2023-05-14T10:14:47.821Z,9.430325
2023-05-14T10:15:47.732Z,9.430365
2023-05-14T10:16:47.649Z,9.430354
2023-05-14T10:17:47.649Z,9.430350
2023-05-14T10:18:47.728Z,9.430380
2023-05-14T10:19:47.592Z,9.430357
2023-05-14T10:20:47.603Z,9.430356
2023-05-14T10:21:47.563Z,9.430364
2023-05-14T10:22:48.046Z,9.430354
2023-05-14T10:23:50.041Z,9.430332
2023-05-14T10:24:48.607Z,9.430326
2023-05-14T10:25:47.706Z,9.430371
2023-05-14T10:26:47.634Z,9.430366
2023-05-14T10:27:47.556Z,9.430350
2023-05-14T10:28:47.731Z,9.430305
2023-05-14T10:29:47.523Z,9.430325
2023-05-14T10:30:47.587Z,9.430346
2023-05-14T10:31:48.383Z,9.430326
2023-05-14T10:32:47.547Z,9.430331
2023-05-14T10:33:47.530Z,9.430399
2023-05-14T10:34:47.461Z,9.430385
2023-05-14T10:35:47.580Z,9.430367
2023-05-14T10:36:47.443Z,9.430355
2023-05-14T10:37:47.379Z,9.430350
2023-05-14T10:38:47.381Z,9.430352
2023-05-14T10:39:47.372Z,9.430326
2023-05-14T10:40:47.354Z,9.430360
2023-05-14T10:41:47.332Z,9.430344
2023-05-14T10:42:47.441Z,9.430362
2023-05-14T10:43:47.356Z,9.430385
2023-05-14T10:44:47.304Z,9.430380
2023-05-14T10:45:47.332Z,9.430364
2023-05-14T10:46:47.430Z,9.430355
2023-05-14T10:47:47.367Z,9.430374
2023-05-14T10:48:47.367Z,9.430358
2023-05-14T10:49:47.321Z,9.430354
2023-05-14T10:50:47.632Z,9.430372
2023-05-14T10:51:47.224Z,9.430364
2023-05-14T10:52:47.951Z,9.430359
2023-05-14T10:53:47.210Z,9.430355
2023-05-14T10:54:47.197Z,9.430353
2023-05-14T10:55:47.204Z,9.430397
2023-05-14T10:56:47.157Z,9.430368
2023-05-14T10:57:47.232Z,9.430367
2023-05-14T10:58:47.273Z,9.430374
2023-05-14T10:59:47.113Z,9.430367
2023-05-14T11:00:47.122Z,9.430354
2023-05-14T11:01:47.107Z,9.430351
2023-05-14T11:02:47.235Z,9.430367
2023-05-14T11:03:47.255Z,9.430377
2023-05-14T11:04:47.072Z,9.430360
2023-05-14T11:05:47.056Z,9.430343
2023-05-14T11:06:47.027Z,9.430351
2023-05-14T11:07:47.028Z,9.430286
2023-05-14T11:08:47.229Z,9.430257
2023-05-14T11:09:47.022Z,9.430310
2023-05-14T11:10:47.021Z,9.430323
2023-05-14T11:11:46.990Z,9.430372
2023-05-14T11:12:47.046Z,9.430373
2023-05-14T11:13:47.005Z,9.430387
2023-05-14T11:14:47.076Z,9.430382
2023-05-14T11:15:47.338Z,9.430386
2023-05-14T11:16:46.976Z,9.430372
2023-05-14T11:17:46.966Z,9.430370
2023-05-14T11:18:47.043Z,9.430379
2023-05-14T11:19:47.899Z,9.430351
2023-05-14T11:20:46.897Z,9.430380
2023-05-14T11:21:46.925Z,9.430348
2023-05-14T11:22:46.833Z,9.430344
2023-05-14T11:23:46.843Z,9.430346
2023-05-14T11:24:46.850Z,9.430356
2023-05-14T11:25:46.844Z,9.430400
2023-05-14T11:26:46.792Z,9.430398
2023-05-14T11:27:46.816Z,9.430399
2023-05-14T11:28:46.790Z,9.430403
2023-05-14T11:29:46.802Z,9.430401
2023-05-14T11:30:46.783Z,9.430372
2023-05-14T11:31:46.870Z,9.430383
2023-05-14T11:32:47.163Z,9.430360
2023-05-14T11:33:46.798Z,9.430351
2023-05-14T11:34:46.809Z,9.430359
2023-05-14T11:35:46.724Z,9.430366
2023-05-14T11:36:46.704Z,9.430348
2023-05-14T11:37:46.703Z,9.430395
2023-05-14T11:38:46.706Z,9.430370
2023-05-14T11:39:46.702Z,9.430378
2023-05-14T11:40:46.670Z,9.430362
2023-05-14T11:41:46.688Z,9.430334
2023-05-14T11:42:46.636Z,9.430333
2023-05-14T11:43:46.703Z,9.430333
2023-05-14T11:44:46.615Z,9.430305
2023-05-14T11:45:46.632Z,9.430313
2023-05-14T11:46:46.622Z,9.430315
2023-05-14T11:47:46.584Z,9.430302
2023-05-14T11:48:46.581Z,9.430292
2023-05-14T11:49:46.593Z,9.430291
2023-05-14T11:50:46.580Z,9.430293
2023-05-14T11:51:46.534Z,9.430311
2023-05-14T11:52:46.569Z,9.430320
2023-05-14T11:53:46.584Z,9.430316
2023-05-14T11:54:46.554Z,9.430303
2023-05-14T11:55:46.544Z,9.430285
2023-05-14T11:56:46.539Z,9.430320
2023-05-14T11:57:46.495Z,9.430333
2023-05-14T11:58:46.499Z,9.430300
2023-05-14T11:59:46.492Z,9.430306
2023-05-14T12:00:46.480Z,9.430336
2023-05-14T12:01:46.430Z,9.430320
2023-05-14T12:02:47.633Z,9.430276
2023-05-14T12:03:46.569Z,9.430315
2023-05-14T12:04:46.467Z,9.430303
2023-05-14T12:05:46.417Z,9.430316
2023-05-14T12:06:46.399Z,9.430309
2023-05-14T12:07:46.387Z,9.430305
2023-05-14T12:08:46.375Z,9.430316
2023-05-14T12:09:46.365Z,9.430291
2023-05-14T12:10:46.350Z,9.430322
2023-05-14T12:11:46.347Z,9.430327
2023-05-14T12:12:46.332Z,9.430285
2023-05-14T12:13:46.304Z,9.430314
2023-05-14T12:14:46.299Z,9.430311
2023-05-14T12:15:46.330Z,9.430362
2023-05-14T12:16:46.542Z,9.430315
2023-05-14T12:17:46.363Z,9.430280
2023-05-14T12:18:46.265Z,9.430293
2023-05-14T12:19:46.260Z,9.430305
2023-05-14T12:20:46.242Z,9.430348
2023-05-14T12:21:46.353Z,9.430341
2023-05-14T12:22:46.236Z,9.430329
2023-05-14T12:23:46.241Z,9.430305
2023-05-14T12:24:46.238Z,9.430326
2023-05-14T12:25:46.178Z,9.430342
2023-05-14T12:26:46.201Z,9.430305
2023-05-14T12:27:46.207Z,9.430311
2023-05-14T12:28:46.177Z,9.430299
2023-05-14T12:29:46.149Z,9.430264
2023-05-14T12:30:46.157Z,9.430316
2023-05-14T12:31:46.243Z,9.430339
2023-05-14T12:32:46.227Z,9.430306
2023-05-14T12:33:46.100Z,9.430305
2023-05-14T12:34:46.114Z,9.430342
2023-05-14T12:35:46.128Z,9.430388
2023-05-14T12:36:46.119Z,9.430420
2023-05-14T12:37:46.133Z,9.430397
2023-05-14T12:38:46.107Z,9.430328
2023-05-14T12:39:46.845Z,9.430314
2023-05-14T12:40:46.060Z,9.430362
2023-05-14T12:41:46.075Z,9.430331
2023-05-14T12:42:46.087Z,9.430328
2023-05-14T12:43:46.039Z,9.430345
2023-05-14T12:44:45.997Z,9.430349
2023-05-14T12:45:46.091Z,9.430318
2023-05-14T12:46:46.106Z,9.430309
2023-05-14T12:47:46.144Z,9.430315
2023-05-14T12:48:45.952Z,9.430319
2023-05-14T12:49:46.971Z,9.430342
2023-05-14T12:50:45.952Z,9.430304
2023-05-14T12:51:45.941Z,9.430345
2023-05-14T12:52:45.952Z,9.430327
2023-05-14T12:53:45.975Z,9.430334
2023-05-14T12:54:45.967Z,9.430372
2023-05-14T12:55:45.931Z,9.430350
2023-05-14T12:56:45.892Z,9.430361
2023-05-14T12:57:45.929Z,9.430329
2023-05-14T12:58:45.873Z,9.430364
2023-05-14T12:59:45.883Z,9.430279
2023-05-14T13:00:45.866Z,9.430323
2023-05-14T13:01:46.828Z,9.430279
2023-05-14T13:02:45.914Z,9.430381
2023-05-14T13:03:45.857Z,9.430376
2023-05-14T13:04:45.844Z,9.430317
2023-05-14T13:05:45.854Z,9.430368
2023-05-14T13:06:45.789Z,9.430346
2023-05-14T13:07:45.807Z,9.430341
2023-05-14T13:08:45.773Z,9.430324
2023-05-14T13:09:46.773Z,9.430336
2023-05-14T13:10:45.735Z,9.430335
2023-05-14T13:11:45.740Z,9.430340
2023-05-14T13:12:45.748Z,9.430348
2023-05-14T13:13:45.701Z,9.430337
2023-05-14T13:14:45.699Z,9.430382
2023-05-14T13:15:45.840Z,9.430372
2023-05-14T13:16:45.671Z,9.430326
2023-05-14T13:17:45.982Z,9.430335
2023-05-14T13:18:45.708Z,9.430370
2023-05-14T13:19:45.674Z,9.430386
2023-05-14T13:20:45.647Z,9.430334
2023-05-14T13:21:45.638Z,9.430322
2023-05-14T13:22:46.228Z,9.430367
2023-05-14T13:23:45.608Z,9.430351
2023-05-14T13:24:45.627Z,9.430306
2023-05-14T13:25:46.901Z,9.430346
2023-05-14T13:26:45.735Z,9.430378
2023-05-14T13:27:45.621Z,9.430351
2023-05-14T13:28:46.307Z,9.430387
2023-05-14T13:29:45.561Z,9.430406
2023-05-14T13:30:45.531Z,9.430326
2023-05-14T13:31:45.614Z,9.430353
2023-05-14T13:32:45.577Z,9.430377
2023-05-14T13:33:45.486Z,9.430342
2023-05-14T13:34:45.524Z,9.430386
2023-05-14T13:35:45.518Z,9.430413
2023-05-14T13:36:45.468Z,9.430430
2023-05-14T13:37:45.493Z,9.430402
2023-05-14T13:38:45.474Z,9.430404
2023-05-14T13:39:45.409Z,9.430423
2023-05-14T13:40:45.577Z,9.430441
2023-05-14T13:41:46.414Z,9.430450
2023-05-14T13:42:45.417Z,9.430452
2023-05-14T13:43:45.423Z,9.430444
2023-05-14T13:44:45.443Z,9.430432
2023-05-14T13:45:45.421Z,9.430440
2023-05-14T13:46:45.915Z,9.430449
2023-05-14T13:47:45.403Z,9.430439
2023-05-14T13:48:45.402Z,9.430397
2023-05-14T13:49:45.319Z,9.430454
2023-05-14T13:50:45.299Z,9.430447
2023-05-14T13:51:45.388Z,9.430375
2023-05-14T13:52:45.339Z,9.430421
2023-05-14T13:53:45.336Z,9.430355
2023-05-14T13:54:45.319Z,9.430374
2023-05-14T13:55:46.683Z,9.430289
2023-05-14T13:56:45.286Z,9.430417
2023-05-14T13:57:45.243Z,9.430384
2023-05-14T13:58:45.252Z,9.430418
2023-05-14T13:59:45.249Z,9.430376
2023-05-14T14:00:45.238Z,9.430372
2023-05-14T14:01:45.273Z,9.430363
2023-05-14T14:02:45.291Z,9.430368
2023-05-14T14:03:45.196Z,9.430353
2023-05-14T14:04:45.316Z,9.430363
2023-05-14T14:05:45.302Z,9.430356
2023-05-14T14:06:45.198Z,9.430338
2023-05-14T14:07:45.778Z,9.430356
2023-05-14T14:08:45.124Z,9.430368
2023-05-14T14:09:45.169Z,9.430367
2023-05-14T14:10:45.120Z,9.430381
2023-05-14T14:11:52.852Z,9.430339
2023-05-14T14:12:46.103Z,9.430359
2023-05-14T14:13:46.590Z,9.430324
2023-05-14T14:14:46.123Z,9.430341
2023-05-14T14:15:45.129Z,9.430330
2023-05-14T14:16:45.060Z,9.430369
2023-05-14T14:17:45.163Z,9.430355
2023-05-14T14:18:45.099Z,9.430354
2023-05-14T14:19:45.073Z,9.430344
2023-05-14T14:20:45.025Z,9.430348
2023-05-14T14:21:45.075Z,9.430324
2023-05-14T14:22:45.019Z,9.430302
2023-05-14T14:23:44.998Z,9.430313
2023-05-14T14:24:45.187Z,9.430324
2023-05-14T14:25:45.069Z,9.430354
2023-05-14T14:26:45.044Z,9.430302
2023-05-14T14:27:45.047Z,9.430312
2023-05-14T14:28:44.910Z,9.430349
2023-05-14T14:29:45.831Z,9.430320
2023-05-14T14:30:46.293Z,9.430312
2023-05-14T14:31:45.388Z,9.430355
2023-05-14T14:32:45.408Z,9.430348
2023-05-14T14:33:46.881Z,9.430337
2023-05-14T14:34:45.748Z,9.430322
2023-05-14T14:35:45.989Z,9.430304
2023-05-14T14:36:44.884Z,9.430333
2023-05-14T14:37:44.952Z,9.430353
2023-05-14T14:38:44.853Z,9.430396
2023-05-14T14:39:44.865Z,9.430367
2023-05-14T14:40:44.778Z,9.430390
2023-05-14T14:41:44.750Z,9.430393
2023-05-14T14:42:44.765Z,9.430417
2023-05-14T14:43:44.752Z,9.430371
2023-05-14T14:44:44.762Z,9.430362
2023-05-14T14:45:45.782Z,9.430363
2023-05-14T14:46:44.692Z,9.430291
2023-05-14T14:47:44.788Z,9.430292
2023-05-14T14:48:44.731Z,9.430323
2023-05-14T14:49:44.679Z,9.430377
2023-05-14T14:50:45.064Z,9.430399
2023-05-14T14:51:44.655Z,9.430352
2023-05-14T14:52:45.911Z,9.430353
2023-05-14T14:53:45.620Z,9.430368
2023-05-14T14:54:44.693Z,9.430360
2023-05-14T14:55:44.599Z,9.430346
2023-05-14T14:56:44.582Z,9.430418
2023-05-14T14:57:45.321Z,9.430359
2023-05-14T14:58:44.568Z,9.430326
2023-05-14T14:59:44.536Z,9.430348
2023-05-14T15:00:44.831Z,9.430354
2023-05-14T15:01:44.619Z,9.430356
2023-05-14T15:02:45.362Z,9.430342
2023-05-14T15:03:44.558Z,9.430313
2023-05-14T15:04:44.615Z,9.430340
2023-05-14T15:05:44.636Z,9.430367
2023-05-14T15:06:44.439Z,9.430356
2023-05-14T15:07:45.034Z,9.430313
2023-05-14T15:08:45.628Z,9.430297
2023-05-14T15:09:44.622Z,9.430304
2023-05-14T15:10:44.870Z,9.430323
2023-05-14T15:11:44.705Z,9.430344
2023-05-14T15:12:45.140Z,9.430361
2023-05-14T15:13:44.394Z,9.430330
2023-05-14T15:14:44.787Z,9.430330
2023-05-14T15:15:44.923Z,9.430300
2023-05-14T15:16:44.427Z,9.430346
2023-05-14T15:17:44.453Z,9.430342
2023-05-14T15:18:44.393Z,9.430350
2023-05-14T15:19:44.352Z,9.430345
2023-05-14T15:20:44.339Z,9.430318
2023-05-14T15:21:44.317Z,9.430357
2023-05-14T15:22:44.307Z,9.430393
2023-05-14T15:23:44.253Z,9.430382
2023-05-14T15:24:45.271Z,9.430414
2023-05-14T15:25:44.872Z,9.430385
2023-05-14T15:26:44.248Z,9.430357
2023-05-14T15:27:44.220Z,9.430360
2023-05-14T15:28:44.804Z,9.430367
2023-05-14T15:29:44.254Z,9.430390
2023-05-14T15:30:44.233Z,9.430375
2023-05-14T15:31:44.256Z,9.430327
2023-05-14T15:32:44.181Z,9.430362
2023-05-14T15:33:44.241Z,9.430344
2023-05-14T15:34:44.172Z,9.430345
2023-05-14T15:35:44.191Z,9.430315
2023-05-14T15:36:44.734Z,9.430321
2023-05-14T15:37:44.124Z,9.430345
2023-05-14T15:38:44.172Z,9.430368
2023-05-14T15:39:44.113Z,9.430314
2023-05-14T15:40:44.110Z,9.430354
2023-05-14T15:41:44.086Z,9.430353
2023-05-14T15:42:44.118Z,9.430327
2023-05-14T15:43:44.067Z,9.430349
2023-05-14T15:44:44.058Z,9.430339
2023-05-14T15:45:44.030Z,9.430326
2023-05-14T15:46:44.164Z,9.430359
2023-05-14T15:47:44.094Z,9.430368
2023-05-14T15:48:44.006Z,9.430324
2023-05-14T15:49:44.023Z,9.430354
2023-05-14T15:50:44.028Z,9.430342
2023-05-14T15:51:43.957Z,9.430375
2023-05-14T15:52:44.020Z,9.430373
2023-05-14T15:53:43.963Z,9.430349
2023-05-14T15:54:44.813Z,9.430332
2023-05-14T15:55:43.922Z,9.430339
2023-05-14T15:56:43.923Z,9.430412
2023-05-14T15:57:43.911Z,9.430379